Columbus, GA (31908)

7:09 AM EDT on August 28, 2014 (GMT -0400)
Lincoln Hills | Change Station
CLOSE
Current Station
Personal Weather Station
Location: Columbus, GA
Elevation: 433 ft
Nearby Weather Stations

Elev 433 ft 32.53 °N, 84.95 °W | Updated 47 seconds ago

Clear
Clear
62.8 °F
Feels Like 62.8 °F
N
0.0
Wind Variable Wind from ENE

Today
High -- | Low -- °F
--% Chance of Precip.
Yesterday
High -- | Low -- °F
Precip. -- in
7:12 AM 8:09 PM
Waxing Crescent, 7% visible
Pressure 30.03 in
Visibility 10.0 miles
Clouds Clear
Dew Point 62 °F
Humidity 99%
Rainfall 0.00 in
Snow Depth Not available.
UV 0 out of 12
Pollen 9.10 out of 12
Ozone Good
PM2.5 Moderate
Flu Activity Not available.
METAR KCSG 281051Z AUTO 00000KT 10SM CLR 19/17 A3003

More Conditions Fewer Conditions

Pressure 30.03 in
Visibility 10.0 miles
Clouds Clear
Dew Point 62 °F
Humidity 99%
Rainfall 0.00 in
Snow Depth Not available.
UV 0 out of 12
Pollen 9.10 out of 12
Ozone Good
PM2.5 Moderate
Flu Activity Not available.
METAR KCSG 281051Z AUTO 00000KT 10SM CLR 19/17 A3003

More Conditions Fewer Conditions

10-Day Weather Forecast

Almanac

Astronomy

Aug. 28, 2014 Rise Set
Actual Time 7:12 AM EDT 8:09 PM EDT
Civil Twilight 6:46 AM EDT 8:34 PM EDT
Nautical Twilight 6:16 AM EDT 9:04 PM EDT
Astronomical Twilight 5:46 AM EDT 9:34 PM EDT
Moon 9:51 AM EDT 9:46 PM EDT
Length of Visible Light 13h 47m
Length of Day
12h 57m
Tomorrow will be 1m 53s shorter.
Waxing Crescent, 7% of the Moon is Illuminated
Today
Waxing Crescent
Sep 2
First Quarter
Sep 8
Full
Sep 15
Last Quarter
Sep 24
New

Today's Extremes

State Highs State Lows

Community

WunderPhotos

Upload Photos

1,747,923 photos uploaded!

Nearby

Air Quality

  Air Quality AQ Index Pollutant
Yesterday Good
PM2.5
Current Moderate
PM2.5
Current Good
OZONE
Thursday Moderate
PM2.5

Snow Depth

Station Depth Elevation
No new snow has been reported.

Earthquake Activity

City Distance Mag. Time & Date
No recent earthquake activity has been reported nearby.
Minimum magnitude displayed is 2.5.

Coastal Water Temperatures

Place Temperature
No Stations Reporting

Nearby Weather Stations